Centralia, Canada
Current Conditions -  °F | °C
As of 8:00 AM on Friday 24 Oct 2014 (Local Time) from CYXU Reporting Station
Haze Haze  
Wind Chill: 32°   Ceiling: 24000
Heat Index: 32°   Visibility: 3mi
Dew Point: 32°   Wind: 2mph
Humidity: 100%   Direction: NA
Pressure: 30.07"   Gusts: NA
Location:  43.28°N, 81.47°W
Report Text: CYXU 241200Z VRB02KT 3SM BR FEW005 BKN240 00/00 A3007 RMK ST2CI3 SLP190
Loading
Personal Weather Stations






























Interactive Weather Map
Tropical Storm Tracking
New forecast layout! Learn more

10-Day Weather Forecast

Advertisements
Track Severe Weather on mobile